sensor_id;sensor_type;location;lat;lon;timestamp;pressure;altitude;pressure_sealevel;temperature;humidity
14269;BME280;7218;51.480;7.006;2023-07-13T00:01:13;99949.66;;;14.13;76.15
14269;BME280;7218;51.480;7.006;2023-07-13T00:03:39;99943.00;;;14.26;75.47
14269;BME280;7218;51.480;7.006;2023-07-13T00:06:07;99950.28;;;14.19;75.77
14269;BME280;7218;51.480;7.006;2023-07-13T00:08:36;99947.06;;;14.11;76.85
14269;BME280;7218;51.480;7.006;2023-07-13T00:11:03;99952.53;;;14.05;76.72
14269;BME280;7218;51.480;7.006;2023-07-13T00:13:30;99958.09;;;13.98;77.13
14269;BME280;7218;51.480;7.006;2023-07-13T00:15:57;99952.72;;;14.01;77.80
14269;BME280;7218;51.480;7.006;2023-07-13T00:18:26;99943.91;;;14.03;77.10
14269;BME280;7218;51.480;7.006;2023-07-13T00:20:55;99947.78;;;13.93;77.41
14269;BME280;7218;51.480;7.006;2023-07-13T00:23:24;99951.88;;;14.00;76.84
14269;BME280;7218;51.480;7.006;2023-07-13T00:25:52;99940.88;;;13.91;77.16
14269;BME280;7218;51.480;7.006;2023-07-13T00:28:22;99945.03;;;13.74;77.60
14269;BME280;7218;51.480;7.006;2023-07-13T00:30:48;99945.84;;;13.75;78.04
14269;BME280;7218;51.480;7.006;2023-07-13T00:33:14;99944.44;;;13.66;78.17
14269;BME280;7218;51.480;7.006;2023-07-13T00:35:41;99950.53;;;13.67;78.38
14269;BME280;7218;51.480;7.006;2023-07-13T00:38:09;99948.59;;;13.49;79.23
14269;BME280;7218;51.480;7.006;2023-07-13T00:40:36;99952.94;;;13.50;79.71
14269;BME280;7218;51.480;7.006;2023-07-13T00:43:08;99945.56;;;13.36;80.24
14269;BME280;7218;51.480;7.006;2023-07-13T00:48:39;99949.72;;;13.42;80.60
14269;BME280;7218;51.480;7.006;2023-07-13T00:51:06;99949.19;;;13.32;80.54
14269;BME280;7218;51.480;7.006;2023-07-13T00:53:33;99944.28;;;13.23;81.36
14269;BME280;7218;51.480;7.006;2023-07-13T00:56:03;99960.13;;;13.20;81.45
14269;BME280;7218;51.480;7.006;2023-07-13T00:58:31;99956.38;;;13.27;81.61
14269;BME280;7218;51.480;7.006;2023-07-13T01:00:58;99945.56;;;13.11;82.13
14269;BME280;7218;51.480;7.006;2023-07-13T01:03:24;99947.31;;;13.11;82.02
14269;BME280;7218;51.480;7.006;2023-07-13T01:05:51;99950.72;;;13.14;82.16
14269;BME280;7218;51.480;7.006;2023-07-13T01:08:19;99952.09;;;13.24;82.08
14269;BME280;7218;51.480;7.006;2023-07-13T01:10:51;99952.31;;;13.18;82.02
14269;BME280;7218;51.480;7.006;2023-07-13T01:13:18;99959.53;;;13.12;82.79
14269;BME280;7218;51.480;7.006;2023-07-13T01:15:48;99952.72;;;13.31;81.51
14269;BME280;7218;51.480;7.006;2023-07-13T01:18:17;99959.88;;;13.26;82.00
14269;BME280;7218;51.480;7.006;2023-07-13T01:20:53;99956.03;;;13.11;82.52
14269;BME280;7218;51.480;7.006;2023-07-13T01:23:20;99954.28;;;12.85;83.46
14269;BME280;7218;51.480;7.006;2023-07-13T01:25:46;99947.66;;;12.75;84.64
14269;BME280;7218;51.480;7.006;2023-07-13T01:28:13;99941.69;;;12.97;83.91
14269;BME280;7218;51.480;7.006;2023-07-13T01:30:40;99948.84;;;12.91;83.37
14269;BME280;7218;51.480;7.006;2023-07-13T01:33:10;99938.28;;;12.94;83.27
14269;BME280;7218;51.480;7.006;2023-07-13T01:35:37;99948.84;;;12.91;83.45
14269;BME280;7218;51.480;7.006;2023-07-13T01:38:05;99955.75;;;12.94;83.22
14269;BME280;7218;51.480;7.006;2023-07-13T01:40:35;99947.81;;;12.95;83.33
14269;BME280;7218;51.480;7.006;2023-07-13T01:43:02;99949.69;;;12.67;84.59
14269;BME280;7218;51.480;7.006;2023-07-13T01:45:28;99953.97;;;12.70;84.06
14269;BME280;7218;51.480;7.006;2023-07-13T01:47:55;99955.63;;;12.72;84.87
14269;BME280;7218;51.480;7.006;2023-07-13T01:50:21;99958.41;;;12.66;84.58
14269;BME280;7218;51.480;7.006;2023-07-13T01:52:47;99956.34;;;12.76;84.52
14269;BME280;7218;51.480;7.006;2023-07-13T01:55:15;99960.66;;;12.78;84.45
14269;BME280;7218;51.480;7.006;2023-07-13T01:57:42;99969.94;;;12.61;85.15
14269;BME280;7218;51.480;7.006;2023-07-13T02:00:10;99969.78;;;12.65;85.06
14269;BME280;7218;51.480;7.006;2023-07-13T02:02:37;99962.00;;;12.64;85.27
14269;BME280;7218;51.480;7.006;2023-07-13T02:05:04;99962.75;;;12.67;85.02
14269;BME280;7218;51.480;7.006;2023-07-13T02:07:31;99959.47;;;12.61;85.33
14269;BME280;7218;51.480;7.006;2023-07-13T02:09:57;99967.03;;;12.43;86.26
14269;BME280;7218;51.480;7.006;2023-07-13T02:12:25;99969.38;;;12.51;86.42
14269;BME280;7218;51.480;7.006;2023-07-13T02:14:52;99965.34;;;12.41;87.07
14269;BME280;7218;51.480;7.006;2023-07-13T02:17:18;99965.47;;;12.38;87.38
14269;BME280;7218;51.480;7.006;2023-07-13T02:19:45;99961.84;;;12.42;87.47
14269;BME280;7218;51.480;7.006;2023-07-13T02:22:11;99966.47;;;12.34;87.96
14269;BME280;7218;51.480;7.006;2023-07-13T02:24:37;99967.41;;;12.31;88.50
14269;BME280;7218;51.480;7.006;2023-07-13T02:27:04;99965.34;;;12.15;90.12
14269;BME280;7218;51.480;7.006;2023-07-13T02:29:32;99966.47;;;12.34;89.02
14269;BME280;7218;51.480;7.006;2023-07-13T02:31:59;99966.13;;;12.17;90.01
14269;BME280;7218;51.480;7.006;2023-07-13T02:34:25;99967.41;;;12.03;90.67
14269;BME280;7218;51.480;7.006;2023-07-13T02:36:52;99964.63;;;12.10;90.72
14269;BME280;7218;51.480;7.006;2023-07-13T02:39:18;99960.31;;;12.07;90.88
14269;BME280;7218;51.480;7.006;2023-07-13T02:41:45;99952.25;;;12.15;90.06
14269;BME280;7218;51.480;7.006;2023-07-13T02:44:12;99956.38;;;12.22;90.14
14269;BME280;7218;51.480;7.006;2023-07-13T02:46:40;99964.28;;;12.20;90.15
14269;BME280;7218;51.480;7.006;2023-07-13T02:49:06;99962.72;;;12.15;90.53
14269;BME280;7218;51.480;7.006;2023-07-13T02:51:33;99963.34;;;11.93;91.75
14269;BME280;7218;51.480;7.006;2023-07-13T02:53:59;99960.78;;;11.92;92.10
14269;BME280;7218;51.480;7.006;2023-07-13T02:56:29;99959.13;;;11.89;92.99
14269;BME280;7218;51.480;7.006;2023-07-13T02:58:56;99970.78;;;11.78;93.72
14269;BME280;7218;51.480;7.006;2023-07-13T03:01:23;99962.47;;;11.94;93.05
14269;BME280;7218;51.480;7.006;2023-07-13T03:03:52;99966.25;;;12.12;92.28
14269;BME280;7218;51.480;7.006;2023-07-13T03:06:19;99971.03;;;11.99;92.69
14269;BME280;7218;51.480;7.006;2023-07-13T03:08:46;99972.47;;;11.80;94.29
14269;BME280;7218;51.480;7.006;2023-07-13T03:11:16;99968.03;;;11.82;94.38
14269;BME280;7218;51.480;7.006;2023-07-13T03:13:43;99965.97;;;11.62;95.32
14269;BME280;7218;51.480;7.006;2023-07-13T03:16:10;99970.94;;;11.73;94.74
14269;BME280;7218;51.480;7.006;2023-07-13T03:18:37;99970.78;;;11.78;94.86
14269;BME280;7218;51.480;7.006;2023-07-13T03:21:05;99967.75;;;11.91;94.21
14269;BME280;7218;51.480;7.006;2023-07-13T03:23:32;99971.47;;;11.84;94.26
14269;BME280;7218;51.480;7.006;2023-07-13T03:26:03;99969.13;;;12.04;93.64
14269;BME280;7218;51.480;7.006;2023-07-13T03:28:30;99978.78;;;12.01;93.64
14269;BME280;7218;51.480;7.006;2023-07-13T03:31:01;99980.06;;;11.88;94.41
14269;BME280;7218;51.480;7.006;2023-07-13T03:33:28;99976.22;;;11.70;95.53
14269;BME280;7218;51.480;7.006;2023-07-13T03:35:55;99972.66;;;11.74;95.82
14269;BME280;7218;51.480;7.006;2023-07-13T03:38:23;99970.66;;;11.82;95.71
14269;BME280;7218;51.480;7.006;2023-07-13T03:40:51;99981.38;;;11.73;96.13
14269;BME280;7218;51.480;7.006;2023-07-13T03:43:18;99975.50;;;11.65;96.78
14269;BME280;7218;51.480;7.006;2023-07-13T03:45:45;99992.03;;;11.65;97.39
14269;BME280;7218;51.480;7.006;2023-07-13T03:48:12;99999.03;;;11.63;97.20
14269;BME280;7218;51.480;7.006;2023-07-13T03:50:38;99998.22;;;11.61;97.83
14269;BME280;7218;51.480;7.006;2023-07-13T03:53:05;100002.81;;;11.84;97.00
14269;BME280;7218;51.480;7.006;2023-07-13T03:55:33;99999.91;;;11.64;98.34
14269;BME280;7218;51.480;7.006;2023-07-13T03:58:05;99996.19;;;11.73;97.57
14269;BME280;7218;51.480;7.006;2023-07-13T04:00:46;99996.44;;;11.94;96.12
14269;BME280;7218;51.480;7.006;2023-07-13T04:03:13;99997.28;;;11.95;96.34
14269;BME280;7218;51.480;7.006;2023-07-13T04:05:39;99997.16;;;11.99;98.28
14269;BME280;7218;51.480;7.006;2023-07-13T04:08:06;100007.78;;;11.93;97.14
14269;BME280;7218;51.480;7.006;2023-07-13T04:10:34;100012.72;;;11.73;98.88
14269;BME280;7218;51.480;7.006;2023-07-13T04:13:00;100010.00;;;11.76;98.54
14269;BME280;7218;51.480;7.006;2023-07-13T04:15:30;100014.63;;;11.97;97.90
14269;BME280;7218;51.480;7.006;2023-07-13T04:17:57;100018.56;;;11.81;98.09
14269;BME280;7218;51.480;7.006;2023-07-13T04:20:24;100025.16;;;11.63;99.69
14269;BME280;7218;51.480;7.006;2023-07-13T04:22:50;100014.47;;;11.73;99.77
14269;BME280;7218;51.480;7.006;2023-07-13T04:25:18;100020.28;;;11.82;99.04
14269;BME280;7218;51.480;7.006;2023-07-13T04:27:46;100015.63;;;11.93;98.59
14269;BME280;7218;51.480;7.006;2023-07-13T04:30:12;100015.38;;;12.01;98.73
14269;BME280;7218;51.480;7.006;2023-07-13T04:32:39;100017.78;;;12.08;97.73
14269;BME280;7218;51.480;7.006;2023-07-13T04:35:06;100021.00;;;12.17;96.97
14269;BME280;7218;51.480;7.006;2023-07-13T04:37:33;100029.53;;;11.94;98.36
14269;BME280;7218;51.480;7.006;2023-07-13T04:40:00;100027.84;;;11.91;98.89
14269;BME280;7218;51.480;7.006;2023-07-13T04:42:27;100029.13;;;11.78;99.74
14269;BME280;7218;51.480;7.006;2023-07-13T04:44:55;100032.59;;;12.08;99.02
14269;BME280;7218;51.480;7.006;2023-07-13T04:47:21;100026.09;;;12.21;98.00
14269;BME280;7218;51.480;7.006;2023-07-13T04:49:48;100027.56;;;12.02;98.83
14269;BME280;7218;51.480;7.006;2023-07-13T04:52:14;100028.59;;;11.96;99.00
14269;BME280;7218;51.480;7.006;2023-07-13T04:54:41;100034.19;;;11.84;100.00
14269;BME280;7218;51.480;7.006;2023-07-13T04:57:07;100046.38;;;11.84;100.00
14269;BME280;7218;51.480;7.006;2023-07-13T04:59:34;100040.28;;;12.14;99.10
14269;BME280;7218;51.480;7.006;2023-07-13T05:02:02;100038.25;;;12.24;99.01
14269;BME280;7218;51.480;7.006;2023-07-13T05:04:28;100036.88;;;12.11;99.21
14269;BME280;7218;51.480;7.006;2023-07-13T05:06:55;100039.84;;;11.98;100.00
14269;BME280;7218;51.480;7.006;2023-07-13T05:09:21;100041.28;;;12.38;98.73
14269;BME280;7218;51.480;7.006;2023-07-13T05:11:48;100043.25;;;12.00;100.00
14269;BME280;7218;51.480;7.006;2023-07-13T05:14:14;100048.25;;;11.79;100.00
14269;BME280;7218;51.480;7.006;2023-07-13T05:16:42;100041.72;;;11.95;100.00
14269;BME280;7218;51.480;7.006;2023-07-13T05:19:10;100052.16;;;11.95;100.00
14269;BME280;7218;51.480;7.006;2023-07-13T05:21:36;100057.75;;;11.81;100.00
14269;BME280;7218;51.480;7.006;2023-07-13T05:24:03;100049.16;;;12.08;100.00
14269;BME280;7218;51.480;7.006;2023-07-13T05:26:29;100056.00;;;11.82;100.00
14269;BME280;7218;51.480;7.006;2023-07-13T05:28:56;100061.81;;;11.91;100.00
14269;BME280;7218;51.480;7.006;2023-07-13T05:31:22;100062.19;;;12.10;100.00
14269;BME280;7218;51.480;7.006;2023-07-13T05:33:49;100060.94;;;11.92;100.00
14269;BME280;7218;51.480;7.006;2023-07-13T05:36:17;100051.09;;;12.00;100.00
14269;BME280;7218;51.480;7.006;2023-07-13T05:38:43;100056.22;;;12.34;100.00
14269;BME280;7218;51.480;7.006;2023-07-13T05:41:10;100057.38;;;12.54;100.00
14269;BME280;7218;51.480;7.006;2023-07-13T05:43:36;100066.38;;;12.45;99.76
14269;BME280;7218;51.480;7.006;2023-07-13T05:46:03;100073.53;;;12.66;98.62
14269;BME280;7218;51.480;7.006;2023-07-13T05:48:29;100069.09;;;12.70;98.86
14269;BME280;7218;51.480;7.006;2023-07-13T05:50:55;100078.38;;;12.50;99.99
14269;BME280;7218;51.480;7.006;2023-07-13T05:53:23;100078.47;;;12.75;98.72
14269;BME280;7218;51.480;7.006;2023-07-13T05:55:50;100078.19;;;12.84;98.42
14269;BME280;7218;51.480;7.006;2023-07-13T05:58:18;100084.00;;;12.66;99.31
14269;BME280;7218;51.480;7.006;2023-07-13T06:00:45;100084.38;;;12.54;100.00
14269;BME280;7218;51.480;7.006;2023-07-13T06:03:12;100090.38;;;11.99;100.00
14269;BME280;7218;51.480;7.006;2023-07-13T06:05:38;100089.81;;;12.19;100.00
14269;BME280;7218;51.480;7.006;2023-07-13T06:08:06;100078.16;;;12.30;100.00
14269;BME280;7218;51.480;7.006;2023-07-13T06:10:34;100086.63;;;12.94;100.00
14269;BME280;7218;51.480;7.006;2023-07-13T06:13:01;100092.56;;;12.99;99.40
14269;BME280;7218;51.480;7.006;2023-07-13T06:15:28;100088.72;;;12.83;99.88
14269;BME280;7218;51.480;7.006;2023-07-13T06:17:54;100092.81;;;12.64;100.00
14269;BME280;7218;51.480;7.006;2023-07-13T06:20:21;100091.97;;;12.34;100.00
14269;BME280;7218;51.480;7.006;2023-07-13T06:22:47;100094.41;;;12.40;100.00
14269;BME280;7218;51.480;7.006;2023-07-13T06:25:14;100105.56;;;12.16;100.00
14269;BME280;7218;51.480;7.006;2023-07-13T06:27:42;100109.38;;;12.35;100.00
14269;BME280;7218;51.480;7.006;2023-07-13T06:30:09;100109.56;;;12.29;100.00
14269;BME280;7218;51.480;7.006;2023-07-13T06:32:36;100103.06;;;12.42;100.00
14269;BME280;7218;51.480;7.006;2023-07-13T06:35:03;100100.47;;;12.40;100.00
14269;BME280;7218;51.480;7.006;2023-07-13T06:37:30;100111.16;;;12.62;100.00
14269;BME280;7218;51.480;7.006;2023-07-13T06:39:56;100099.78;;;12.63;100.00
14269;BME280;7218;51.480;7.006;2023-07-13T06:42:23;100103.44;;;12.85;100.00
14269;BME280;7218;51.480;7.006;2023-07-13T06:44:50;100108.75;;;13.12;100.00
14269;BME280;7218;51.480;7.006;2023-07-13T06:47:17;100111.06;;;12.93;100.00
14269;BME280;7218;51.480;7.006;2023-07-13T06:49:43;100110.88;;;13.27;100.00
14269;BME280;7218;51.480;7.006;2023-07-13T06:52:10;100113.25;;;13.34;100.00
14269;BME280;7218;51.480;7.006;2023-07-13T06:54:36;100122.97;;;13.56;100.00
14269;BME280;7218;51.480;7.006;2023-07-13T06:57:03;100122.56;;;13.93;97.00
14269;BME280;7218;51.480;7.006;2023-07-13T06:59:30;100110.13;;;13.74;97.87
14269;BME280;7218;51.480;7.006;2023-07-13T07:01:57;100121.13;;;13.84;97.24
14269;BME280;7218;51.480;7.006;2023-07-13T07:04:24;100120.81;;;13.93;96.92
14269;BME280;7218;51.480;7.006;2023-07-13T07:06:50;100129.03;;;13.83;97.19
14269;BME280;7218;51.480;7.006;2023-07-13T07:09:17;100126.88;;;14.18;96.32
14269;BME280;7218;51.480;7.006;2023-07-13T07:11:43;100122.72;;;14.83;92.25
14269;BME280;7218;51.480;7.006;2023-07-13T07:14:10;100120.59;;;14.47;94.73
14269;BME280;7218;51.480;7.006;2023-07-13T07:16:36;100116.09;;;14.73;91.78
14269;BME280;7218;51.480;7.006;2023-07-13T07:19:04;100119.78;;;14.45;93.73
14269;BME280;7218;51.480;7.006;2023-07-13T07:21:30;100129.56;;;14.17;95.14
14269;BME280;7218;51.480;7.006;2023-07-13T07:23:57;100133.53;;;14.27;94.58
14269;BME280;7218;51.480;7.006;2023-07-13T07:26:25;100132.44;;;14.57;93.86
14269;BME280;7218;51.480;7.006;2023-07-13T07:28:51;100128.59;;;14.89;92.49
14269;BME280;7218;51.480;7.006;2023-07-13T07:31:18;100135.66;;;14.87;91.69
14269;BME280;7218;51.480;7.006;2023-07-13T07:33:44;100130.88;;;14.75;91.89
14269;BME280;7218;51.480;7.006;2023-07-13T07:36:12;100130.69;;;14.80;92.43
14269;BME280;7218;51.480;7.006;2023-07-13T07:38:38;100133.41;;;14.30;96.00
14269;BME280;7218;51.480;7.006;2023-07-13T07:41:05;100128.75;;;14.15;96.35
14269;BME280;7218;51.480;7.006;2023-07-13T07:43:31;100134.25;;;14.32;95.77
14269;BME280;7218;51.480;7.006;2023-07-13T07:45:58;100118.91;;;14.45;94.46
14269;BME280;7218;51.480;7.006;2023-07-13T07:48:24;100140.22;;;14.36;94.82
14269;BME280;7218;51.480;7.006;2023-07-13T07:50:51;100120.84;;;14.63;92.48
14269;BME280;7218;51.480;7.006;2023-07-13T07:53:18;100123.00;;;14.97;90.68
14269;BME280;7218;51.480;7.006;2023-07-13T07:55:45;100123.25;;;14.91;90.59
14269;BME280;7218;51.480;7.006;2023-07-13T07:58:12;100125.50;;;15.00;90.90
14269;BME280;7218;51.480;7.006;2023-07-13T08:00:39;100128.69;;;15.08;90.83
14269;BME280;7218;51.480;7.006;2023-07-13T08:03:05;100116.47;;;14.40;94.92
14269;BME280;7218;51.480;7.006;2023-07-13T08:05:35;100124.84;;;14.73;94.25
14269;BME280;7218;51.480;7.006;2023-07-13T08:08:01;100141.16;;;14.58;93.31
14269;BME280;7218;51.480;7.006;2023-07-13T08:10:29;100129.13;;;14.52;94.13
14269;BME280;7218;51.480;7.006;2023-07-13T08:12:55;100131.03;;;14.71;93.30
14269;BME280;7218;51.480;7.006;2023-07-13T08:15:22;100129.34;;;14.91;91.91
14269;BME280;7218;51.480;7.006;2023-07-13T08:17:49;100137.88;;;14.28;93.51
14269;BME280;7218;51.480;7.006;2023-07-13T08:20:15;100140.47;;;14.05;95.72
14269;BME280;7218;51.480;7.006;2023-07-13T08:22:42;100125.34;;;14.13;95.15
14269;BME280;7218;51.480;7.006;2023-07-13T08:25:09;100127.91;;;14.14;93.93
14269;BME280;7218;51.480;7.006;2023-07-13T08:27:37;100127.38;;;14.53;94.02
14269;BME280;7218;51.480;7.006;2023-07-13T08:30:04;100135.63;;;14.65;91.93
14269;BME280;7218;51.480;7.006;2023-07-13T08:32:33;100139.28;;;14.38;93.52
14269;BME280;7218;51.480;7.006;2023-07-13T08:34:59;100137.03;;;14.28;94.19
14269;BME280;7218;51.480;7.006;2023-07-13T08:37:26;100140.03;;;14.87;92.38
14269;BME280;7218;51.480;7.006;2023-07-13T08:39:53;100135.41;;;14.93;92.22
14269;BME280;7218;51.480;7.006;2023-07-13T08:42:30;100136.28;;;14.94;90.04
14269;BME280;7218;51.480;7.006;2023-07-13T08:45:05;100134.88;;;15.29;88.94
14269;BME280;7218;51.480;7.006;2023-07-13T08:47:37;100123.88;;;15.39;88.43
14269;BME280;7218;51.480;7.006;2023-07-13T08:50:10;100136.34;;;15.14;89.72
14269;BME280;7218;51.480;7.006;2023-07-13T08:52:39;100124.66;;;14.78;90.79
14269;BME280;7218;51.480;7.006;2023-07-13T08:55:13;100136.28;;;14.71;91.11
14269;BME280;7218;51.480;7.006;2023-07-13T08:57:42;100128.47;;;15.14;89.81
14269;BME280;7218;51.480;7.006;2023-07-13T09:00:12;100128.13;;;15.22;89.08
14269;BME280;7218;51.480;7.006;2023-07-13T09:02:44;100126.66;;;15.36;88.49
14269;BME280;7218;51.480;7.006;2023-07-13T09:05:14;100125.78;;;15.98;85.76
14269;BME280;7218;51.480;7.006;2023-07-13T09:07:55;100130.91;;;16.01;85.02
14269;BME280;7218;51.480;7.006;2023-07-13T09:10:27;100122.59;;;16.10;84.77
14269;BME280;7218;51.480;7.006;2023-07-13T09:13:04;100115.63;;;16.48;83.32
14269;BME280;7218;51.480;7.006;2023-07-13T09:15:38;100124.63;;;16.63;81.52
14269;BME280;7218;51.480;7.006;2023-07-13T09:18:10;100116.38;;;16.50;83.90
14269;BME280;7218;51.480;7.006;2023-07-13T09:20:42;100125.25;;;16.68;82.46
14269;BME280;7218;51.480;7.006;2023-07-13T09:23:14;100120.31;;;16.42;82.74
14269;BME280;7218;51.480;7.006;2023-07-13T09:25:44;100122.06;;;16.61;82.64
14269;BME280;7218;51.480;7.006;2023-07-13T09:28:15;100121.06;;;16.25;83.93
14269;BME280;7218;51.480;7.006;2023-07-13T09:30:49;100114.94;;;16.82;82.49
14269;BME280;7218;51.480;7.006;2023-07-13T09:33:18;100120.34;;;16.60;80.62
14269;BME280;7218;51.480;7.006;2023-07-13T09:35:45;100134.28;;;16.62;80.92
14269;BME280;7218;51.480;7.006;2023-07-13T09:38:13;100130.16;;;16.75;81.29
14269;BME280;7218;51.480;7.006;2023-07-13T09:40:46;100129.44;;;16.72;83.09
14269;BME280;7218;51.480;7.006;2023-07-13T09:43:16;100123.94;;;17.31;78.81
14269;BME280;7218;51.480;7.006;2023-07-13T09:45:46;100136.31;;;17.29;80.09
14269;BME280;7218;51.480;7.006;2023-07-13T09:48:15;100133.22;;;17.74;75.88
14269;BME280;7218;51.480;7.006;2023-07-13T09:50:42;100130.28;;;17.63;75.52
14269;BME280;7218;51.480;7.006;2023-07-13T09:53:13;100137.19;;;17.30;77.52
14269;BME280;7218;51.480;7.006;2023-07-13T09:55:42;100129.72;;;17.20;78.29
14269;BME280;7218;51.480;7.006;2023-07-13T09:58:12;100133.78;;;17.45;76.60
14269;BME280;7218;51.480;7.006;2023-07-13T10:00:40;100148.66;;;16.93;78.78
14269;BME280;7218;51.480;7.006;2023-07-13T10:03:17;100133.78;;;17.28;78.09
14269;BME280;7218;51.480;7.006;2023-07-13T10:05:45;100141.69;;;18.14;74.78
14269;BME280;7218;51.480;7.006;2023-07-13T10:08:21;100146.31;;;18.43;73.25
14269;BME280;7218;51.480;7.006;2023-07-13T10:10:53;100153.06;;;17.81;74.40
14269;BME280;7218;51.480;7.006;2023-07-13T10:13:29;100150.59;;;17.78;75.65
14269;BME280;7218;51.480;7.006;2023-07-13T10:15:58;100155.22;;;17.56;77.22
14269;BME280;7218;51.480;7.006;2023-07-13T10:18:28;100154.31;;;17.21;77.21
14269;BME280;7218;51.480;7.006;2023-07-13T10:21:18;100154.25;;;17.40;76.59
14269;BME280;7218;51.480;7.006;2023-07-13T10:23:49;100153.84;;;16.94;79.78
14269;BME280;7218;51.480;7.006;2023-07-13T10:26:20;100158.31;;;18.16;74.65
14269;BME280;7218;51.480;7.006;2023-07-13T10:28:51;100159.72;;;18.05;72.55
14269;BME280;7218;51.480;7.006;2023-07-13T10:31:21;100157.50;;;17.28;77.16
14269;BME280;7218;51.480;7.006;2023-07-13T10:33:49;100156.69;;;18.46;73.94
14269;BME280;7218;51.480;7.006;2023-07-13T10:36:23;100157.13;;;18.21;74.16
14269;BME280;7218;51.480;7.006;2023-07-13T10:38:55;100153.16;;;17.97;74.59
14269;BME280;7218;51.480;7.006;2023-07-13T10:41:24;100164.00;;;17.74;71.85
14269;BME280;7218;51.480;7.006;2023-07-13T10:43:53;100159.91;;;16.96;74.58
14269;BME280;7218;51.480;7.006;2023-07-13T10:46:25;100158.13;;;17.33;72.99
14269;BME280;7218;51.480;7.006;2023-07-13T10:48:57;100165.84;;;17.18;74.33
14269;BME280;7218;51.480;7.006;2023-07-13T10:51:25;100160.25;;;16.70;77.54
14269;BME280;7218;51.480;7.006;2023-07-13T10:54:16;100149.50;;;17.65;72.50
14269;BME280;7218;51.480;7.006;2023-07-13T10:56:43;100161.19;;;17.94;73.55
14269;BME280;7218;51.480;7.006;2023-07-13T10:59:12;100163.53;;;18.00;72.46
14269;BME280;7218;51.480;7.006;2023-07-13T11:01:48;100152.53;;;18.25;68.87
14269;BME280;7218;51.480;7.006;2023-07-13T11:04:19;100149.28;;;18.85;68.43
14269;BME280;7218;51.480;7.006;2023-07-13T11:06:48;100156.91;;;18.26;68.93
14269;BME280;7218;51.480;7.006;2023-07-13T11:09:31;100162.59;;;18.01;71.08
14269;BME280;7218;51.480;7.006;2023-07-13T11:11:59;100150.38;;;18.48;69.11
14269;BME280;7218;51.480;7.006;2023-07-13T11:14:30;100147.94;;;19.40;64.38
14269;BME280;7218;51.480;7.006;2023-07-13T11:16:57;100145.06;;;19.74;62.84
14269;BME280;7218;51.480;7.006;2023-07-13T11:19:40;100159.75;;;19.94;59.95
14269;BME280;7218;51.480;7.006;2023-07-13T11:22:16;100152.78;;;20.07;60.17
14269;BME280;7218;51.480;7.006;2023-07-13T11:24:50;100163.69;;;19.72;59.10
14269;BME280;7218;51.480;7.006;2023-07-13T11:27:36;100149.66;;;20.00;59.65
14269;BME280;7218;51.480;7.006;2023-07-13T11:30:13;100153.50;;;19.81;59.59
14269;BME280;7218;51.480;7.006;2023-07-13T11:32:44;100153.63;;;19.63;60.21
14269;BME280;7218;51.480;7.006;2023-07-13T11:35:17;100157.06;;;19.80;59.60
14269;BME280;7218;51.480;7.006;2023-07-13T11:37:47;100152.63;;;20.52;56.43
14269;BME280;7218;51.480;7.006;2023-07-13T11:40:14;100139.53;;;20.78;56.48
14269;BME280;7218;51.480;7.006;2023-07-13T11:42:41;100140.09;;;20.83;55.47
14269;BME280;7218;51.480;7.006;2023-07-13T11:45:19;100142.84;;;21.49;53.08
14269;BME280;7218;51.480;7.006;2023-07-13T11:47:48;100141.78;;;20.98;52.36
14269;BME280;7218;51.480;7.006;2023-07-13T11:50:21;100139.06;;;20.85;53.56
14269;BME280;7218;51.480;7.006;2023-07-13T11:52:49;100140.56;;;21.30;52.96
14269;BME280;7218;51.480;7.006;2023-07-13T11:55:18;100129.72;;;21.73;48.93
14269;BME280;7218;51.480;7.006;2023-07-13T11:57:50;100128.75;;;21.08;50.65
14269;BME280;7218;51.480;7.006;2023-07-13T12:00:21;100124.88;;;21.79;46.90
14269;BME280;7218;51.480;7.006;2023-07-13T12:02:50;100125.50;;;23.08;42.29
14269;BME280;7218;51.480;7.006;2023-07-13T12:05:19;100124.59;;;22.96;41.63
14269;BME280;7218;51.480;7.006;2023-07-13T12:07:47;100124.44;;;21.07;46.25
14269;BME280;7218;51.480;7.006;2023-07-13T12:10:19;100131.25;;;21.37;46.44
14269;BME280;7218;51.480;7.006;2023-07-13T12:12:48;100128.31;;;21.15;47.46
14269;BME280;7218;51.480;7.006;2023-07-13T12:15:14;100126.06;;;22.39;44.13
14269;BME280;7218;51.480;7.006;2023-07-13T12:17:41;100122.53;;;23.82;41.93
14269;BME280;7218;51.480;7.006;2023-07-13T12:20:21;100120.69;;;23.61;40.66
14269;BME280;7218;51.480;7.006;2023-07-13T12:22:50;100115.44;;;23.94;40.04
14269;BME280;7218;51.480;7.006;2023-07-13T12:25:17;100113.72;;;23.23;41.19
14269;BME280;7218;51.480;7.006;2023-07-13T12:27:47;100124.97;;;21.26;44.11
14269;BME280;7218;51.480;7.006;2023-07-13T12:30:26;100132.16;;;22.90;43.29
14269;BME280;7218;51.480;7.006;2023-07-13T12:32:56;100124.66;;;23.55;39.98
14269;BME280;7218;51.480;7.006;2023-07-13T12:35:25;100128.44;;;23.64;40.12
14269;BME280;7218;51.480;7.006;2023-07-13T12:37:56;100122.81;;;24.01;38.33
14269;BME280;7218;51.480;7.006;2023-07-13T12:40:30;100120.56;;;22.91;40.69
14269;BME280;7218;51.480;7.006;2023-07-13T12:42:58;100122.69;;;21.99;41.65
14269;BME280;7218;51.480;7.006;2023-07-13T12:45:26;100147.44;;;22.24;42.29
14269;BME280;7218;51.480;7.006;2023-07-13T12:47:55;100137.59;;;21.62;43.60
14269;BME280;7218;51.480;7.006;2023-07-13T12:50:30;100128.03;;;21.32;46.36
14269;BME280;7218;51.480;7.006;2023-07-13T12:53:02;100127.47;;;20.59;46.91
14269;BME280;7218;51.480;7.006;2023-07-13T12:55:29;100131.44;;;20.38;48.45
14269;BME280;7218;51.480;7.006;2023-07-13T12:57:58;100136.22;;;20.17;49.67
14269;BME280;7218;51.480;7.006;2023-07-13T13:00:28;100135.69;;;20.27;50.57
14269;BME280;7218;51.480;7.006;2023-07-13T13:02:58;100146.72;;;19.61;51.99
14269;BME280;7218;51.480;7.006;2023-07-13T13:05:30;100149.41;;;19.45;51.01
14269;BME280;7218;51.480;7.006;2023-07-13T13:07:58;100150.13;;;18.53;55.34
14269;BME280;7218;51.480;7.006;2023-07-13T13:10:24;100146.28;;;18.91;54.28
14269;BME280;7218;51.480;7.006;2023-07-13T13:12:52;100157.72;;;18.76;54.76